Bay Bridge — 3FCS5 — position and weather

sailwx.info

Track history (hours):
 
Tides and Currents Weather Stations Pressure Air Temp Water Temp Dewpoint Dewpoint Depression Visibility Wind Speed Wind Dir Waves Ship Positions

Bay Bridge

Last reported at 2015-May-24 10:17 UTC. Time now 2015-May-24 13:19 UTC.
Position N 31°07' E 122°49'.

Length 267 m; draft 7 m.

Type: Ship (hazmat cat A). MMSI: 354120000.

Date/timePositionNaut miles runAvg speedWind from/ knotsBaromVisibWave heightAir tempDewpointWater temp
2015-May-24 10:17N 31°07' E 122°49'0 0.1
2015-May-24 06:17N 31°07' E 122°49'0 0.0
2015-May-24 02:11N 31°07' E 122°49'0 0.0
2015-May-24 01:14N 31°07' E 122°49'0 0.2
2015-May-24 00:20N 31°07' E 122°49'0 0.0
2015-May-23 17:05N 31°07' E 122°49'0 0.1
2015-May-23 13:17N 31°07' E 122°49'0 0.0
2015-May-23 10:17N 31°07' E 122°49'0 0.1
2015-May-23 05:17N 31°07' E 122°49'0 0.0
2015-May-23 04:29N 31°07' E 122°49'0 0.0
2015-May-23 03:26N 31°07' E 122°49'0 0.1
2015-May-23 00:29N 31°07' E 122°49'0 0.0
2015-May-22 20:17N 31°07' E 122°49'0 0.0
2015-May-22 13:29N 31°07' E 122°49'0 0.0
2015-May-22 12:32N 31°07' E 122°49'0 0.1
2015-May-22 11:32N 31°07' E 122°49'0 0.0
2015-May-22 10:23N 31°07' E 122°49'0 0.1
2015-May-22 09:23N 31°07' E 122°49'0 0.1
2015-May-22 08:05N 31°07' E 122°49'0 0.1
2015-May-22 07:32N 31°07' E 122°49'0 0.1
2015-May-22 06:26N 31°07' E 122°49'0 0.0
2015-May-22 05:23N 31°08' E 122°49'0 0.1
2015-May-22 04:32N 31°07' E 122°49'0 0.0
2015-May-22 03:20N 31°07' E 122°49'0 0.1
2015-May-22 01:23N 31°07' E 122°49'0 0.1
2015-May-21 23:32N 31°07' E 122°49'0 0.0
2015-May-21 22:14N 31°07' E 122°49'0 0.1
2015-May-21 21:32N 31°07' E 122°49'0 0.1
2015-May-21 20:32N 31°07' E 122°49'0 0.1
2015-May-21 19:29N 31°07' E 122°49'0 0.1
2015-May-21 18:32N 31°07' E 122°49'0 0.1
2015-May-21 17:26N 31°07' E 122°49'0 0.0
2015-May-21 16:17N 31°07' E 122°49'0 0.1
2015-May-21 12:11N 31°07' E 122°49'0 0.1
2015-May-21 06:11N 31°07' E 122°49'0 0.0
2015-May-20 10:29N 31°07' E 122°49'0 0.1
2015-May-20 09:26N 31°07' E 122°49'0 0.1
2015-May-20 08:32N 31°07' E 122°49'0 0.1
2015-May-20 07:32N 31°07' E 122°50'0 0.1
2015-May-20 06:32N 31°07' E 122°50'0 0.2
2015-May-20 05:32N 31°07' E 122°49'0 0.1
2015-May-20 04:32N 31°08' E 122°49'0 0.0
2015-May-20 03:23N 31°08' E 122°49'0 0.1
2015-May-20 02:26N 31°07' E 122°49'0 0.1
2015-May-19 20:26N 31°07' E 122°50'0 0.0
2015-May-19 19:23N 31°07' E 122°50'0 0.1
2015-May-19 18:17N 31°07' E 122°50'1 0.8
2015-May-19 17:33N 31°08' E 122°49'1510.8
2015-May-19 16:10N 30°58' E 122°35'812.1
2015-May-19 15:31N 31°00' E 122°26'1212.9
2015-May-19 14:33N 31°03' E 122°12'7 6.9
2015-May-19 13:31N 31°04' E 122°04'9 9.2
2015-May-19 12:33N 31°08' E 121°55'7 7.5
2015-May-19 11:33N 31°13' E 121°48'10 9.6
2015-May-19 10:33N 31°20' E 121°41'10 9.5
2015-May-19 09:33N 31°25' E 121°31'6 5.6
2015-May-19 08:33N 31°30' E 121°29'5 5.2
2015-May-19 07:33N 31°31' E 121°35'6 6.3
2015-May-19 06:32N 31°35' E 121°28'0 0.0
2015-May-19 05:32N 31°35' E 121°28'4 3.9
2015-May-19 04:33N 31°33' E 121°32'5 5.2
2015-May-19 03:33N 31°36' E 121°27'0 0.0
2015-May-19 02:31N 31°36' E 121°27'0 0.0
2015-May-19 01:31N 31°36' E 121°27'0 0.0
2015-May-19 00:31N 31°36' E 121°27'0 0.0
2015-May-18 23:31N 31°36' E 121°27'0 0.0
2015-May-18 22:31N 31°36' E 121°27'0 0.0
2015-May-18 21:31N 31°36' E 121°27'0 0.0
2015-May-18 20:31N 31°36' E 121°27'0 0.0
2015-May-18 19:31N 31°36' E 121°27'0 0.0
2015-May-18 18:28N 31°36' E 121°27'0 0.0
2015-May-18 17:31N 31°36' E 121°27'0 0.0
2015-May-18 16:31N 31°36' E 121°27'0 0.0
2015-May-18 15:31N 31°36' E 121°27'0 0.0
2015-May-18 14:31N 31°36' E 121°27'0 0.0
2015-May-18 13:22N 31°36' E 121°27'0 0.0
2015-May-18 12:31N 31°36' E 121°27'0 0.0
2015-May-18 11:31N 31°36' E 121°27'0 0.0
2015-May-18 10:31N 31°36' E 121°27'0 0.0
2015-May-18 09:31N 31°36' E 121°27'0 0.0
2015-May-18 08:31N 31°36' E 121°27'0 0.0
2015-May-18 07:31N 31°36' E 121°27'0 0.0
2015-May-18 06:31N 31°36' E 121°27'0 0.0
2015-May-18 05:31N 31°36' E 121°27'0 0.0
2015-May-18 04:31N 31°36' E 121°27'0 0.0
2015-May-18 03:31N 31°36' E 121°27'0 0.0
2015-May-18 02:31N 31°36' E 121°27'0 0.0
2015-May-18 01:31N 31°36' E 121°27'0 0.0
2015-May-18 00:31N 31°36' E 121°27'0 0.0
2015-May-17 23:31N 31°36' E 121°27'0 0.0
2015-May-17 22:31N 31°36' E 121°27'0 0.0
2015-May-17 21:31N 31°36' E 121°27'0 0.0
2015-May-17 20:31N 31°36' E 121°27'0 0.0
2015-May-17 19:31N 31°36' E 121°27'0 0.0
2015-May-17 18:31N 31°36' E 121°27'0 0.0
2015-May-17 17:31N 31°36' E 121°27'0 0.1
2015-May-17 16:33N 31°36' E 121°27'1 0.8
2015-May-17 15:32N 31°35' E 121°27'0 0.0
2015-May-17 14:32N 31°35' E 121°27'0 0.0
2015-May-17 13:32N 31°35' E 121°27'0 0.3
2015-May-17 12:29N 31°35' E 121°28'0 0.0
2015-May-17 11:31N 31°35' E 121°28'1 0.8
2015-May-17 10:32N 31°35' E 121°27'0 0.0
2015-May-17 09:32N 31°35' E 121°27'0 0.0
2015-May-17 08:29N 31°35' E 121°27'0 0.0
2015-May-17 07:32N 31°35' E 121°27'0 0.0
2015-May-17 06:29N 31°35' E 121°27'0 0.0
2015-May-17 05:32N 31°35' E 121°27'0 0.0
2015-May-17 04:32N 31°35' E 121°27'0 0.0
2015-May-17 03:32N 31°35' E 121°27'0 0.0
2015-May-17 02:32N 31°35' E 121°27'0 0.0
2015-May-17 01:32N 31°35' E 121°27'0 0.0
2015-May-17 00:32N 31°35' E 121°27'0 0.0
2015-May-16 23:32N 31°35' E 121°27'0 0.0
2015-May-16 22:32N 31°35' E 121°27'0 0.0
2015-May-16 21:32N 31°35' E 121°27'0 0.0
2015-May-16 20:32N 31°35' E 121°27'0 0.0
2015-May-16 19:32N 31°35' E 121°27'0 0.0
2015-May-16 18:32N 31°35' E 121°27'0 0.0
2015-May-16 17:32N 31°35' E 121°27'0 0.0
2015-May-16 16:32N 31°35' E 121°27'0 0.0
2015-May-16 15:32N 31°35' E 121°27'0 0.0
2015-May-16 14:32N 31°35' E 121°27'0 0.0
2015-May-16 13:32N 31°35' E 121°27'0 0.0
2015-May-16 12:32N 31°35' E 121°27'0 0.0
2015-May-16 11:32N 31°35' E 121°27'0 0.0
2015-May-16 10:29N 31°35' E 121°27'0 0.0
2015-May-16 09:32N 31°35' E 121°27'0 0.0
2015-May-16 08:32N 31°35' E 121°27'0 0.0
2015-May-16 07:32N 31°35' E 121°27'0 0.0
2015-May-16 06:32N 31°35' E 121°27'0 0.0
2015-May-16 05:32N 31°35' E 121°27'0 0.0
2015-May-16 04:29N 31°35' E 121°27'0 0.0
2015-May-16 03:32N 31°35' E 121°27'0 0.0
2015-May-16 02:32N 31°35' E 121°27'0 0.0
2015-May-16 01:32N 31°35' E 121°27'0 0.0
2015-May-16 00:32N 31°35' E 121°27'0 0.0
2015-May-15 23:32N 31°35' E 121°27'0 0.0
2015-May-15 22:32N 31°35' E 121°27'0 0.0
2015-May-15 21:32N 31°35' E 121°27'0 0.0
2015-May-15 20:29N 31°35' E 121°27'0 0.0
2015-May-15 19:32N 31°35' E 121°27'0 0.0
2015-May-15 18:32N 31°35' E 121°27'0 0.0
2015-May-15 17:32N 31°35' E 121°27'0 0.0
2015-May-15 16:32N 31°35' E 121°27'0 0.0
2015-May-15 15:32N 31°35' E 121°27'0 0.0
2015-May-15 14:32N 31°35' E 121°27'0 0.0
2015-May-15 13:32N 31°35' E 121°27'0 0.0
2015-May-15 12:32N 31°35' E 121°27'0 0.0
2015-May-15 11:32N 31°35' E 121°27'0 0.0
2015-May-15 10:32N 31°35' E 121°27'0 0.0
2015-May-15 09:32N 31°35' E 121°27'0 0.0
2015-May-15 08:32N 31°35' E 121°27'0 0.0
2015-May-15 07:32N 31°35' E 121°27'0 0.0
2015-May-15 06:32N 31°35' E 121°27'0 0.0
2015-May-15 05:32N 31°35' E 121°27'0 0.0
2015-May-15 04:32N 31°35' E 121°27'0 0.0
2015-May-15 03:32N 31°35' E 121°27'0 0.0
2015-May-15 02:32N 31°35' E 121°27'0 0.0
2015-May-15 01:32N 31°35' E 121°27'0 0.0
2015-May-15 00:32N 31°35' E 121°27'0 0.0
2015-May-14 23:32N 31°35' E 121°27'0 0.0
2015-May-14 22:32N 31°35' E 121°27'0 0.0
2015-May-14 21:32N 31°35' E 121°27'0 0.0
2015-May-14 20:32N 31°35' E 121°27'0 0.0
2015-May-14 19:32N 31°35' E 121°27'0 0.0
2015-May-14 18:32N 31°35' E 121°27'0 0.0
2015-May-14 17:32N 31°35' E 121°27'0 0.0
2015-May-14 16:32N 31°35' E 121°27'0 0.0
2015-May-14 15:32N 31°35' E 121°27'0 0.0
2015-May-14 14:32N 31°35' E 121°27'0 0.0
2015-May-14 13:32N 31°35' E 121°27'0 0.0
2015-May-14 12:32N 31°35' E 121°27'0 0.0
2015-May-14 11:32N 31°35' E 121°27'0 0.0
2015-May-14 10:32N 31°35' E 121°27'  
Track history (hours):
 
Tides and Currents Weather Stations Pressure Air Temp Water Temp Dewpoint Dewpoint Depression Visibility Wind Speed Wind Dir Waves Ship Positions

Bay Bridge

Last reported at 2015-May-24 10:17 UTC. Time now 2015-May-24 13:19 UTC.
Position N 31°07' E 122°49'.

Length 267 m; draft 7 m.

Type: Ship (hazmat cat A). MMSI: 354120000.

Date/timePositionNaut miles runAvg speedWind from/ knotsBaromVisibWave heightAir tempDewpointWater temp
2015-May-24 10:17N 31°07' E 122°49'0 0.1
2015-May-24 06:17N 31°07' E 122°49'0 0.0
2015-May-24 02:11N 31°07' E 122°49'0 0.0
2015-May-24 01:14N 31°07' E 122°49'0 0.2
2015-May-24 00:20N 31°07' E 122°49'0 0.0
2015-May-23 17:05N 31°07' E 122°49'0 0.1
2015-May-23 13:17N 31°07' E 122°49'0 0.0
2015-May-23 10:17N 31°07' E 122°49'0 0.1
2015-May-23 05:17N 31°07' E 122°49'0 0.0
2015-May-23 04:29N 31°07' E 122°49'0 0.0
2015-May-23 03:26N 31°07' E 122°49'0 0.1
2015-May-23 00:29N 31°07' E 122°49'0 0.0
2015-May-22 20:17N 31°07' E 122°49'0 0.0
2015-May-22 13:29N 31°07' E 122°49'0 0.0
2015-May-22 12:32N 31°07' E 122°49'0 0.1
2015-May-22 11:32N 31°07' E 122°49'0 0.0
2015-May-22 10:23N 31°07' E 122°49'0 0.1
2015-May-22 09:23N 31°07' E 122°49'0 0.1
2015-May-22 08:05N 31°07' E 122°49'0 0.1
2015-May-22 07:32N 31°07' E 122°49'0 0.1
2015-May-22 06:26N 31°07' E 122°49'0 0.0
2015-May-22 05:23N 31°08' E 122°49'0 0.1
2015-May-22 04:32N 31°07' E 122°49'0 0.0
2015-May-22 03:20N 31°07' E 122°49'0 0.1
2015-May-22 01:23N 31°07' E 122°49'0 0.1
2015-May-21 23:32N 31°07' E 122°49'0 0.0
2015-May-21 22:14N 31°07' E 122°49'0 0.1
2015-May-21 21:32N 31°07' E 122°49'0 0.1
2015-May-21 20:32N 31°07' E 122°49'0 0.1
2015-May-21 19:29N 31°07' E 122°49'0 0.1
2015-May-21 18:32N 31°07' E 122°49'0 0.1
2015-May-21 17:26N 31°07' E 122°49'0 0.0
2015-May-21 16:17N 31°07' E 122°49'0 0.1
2015-May-21 12:11N 31°07' E 122°49'0 0.1
2015-May-21 06:11N 31°07' E 122°49'0 0.0
2015-May-20 10:29N 31°07' E 122°49'0 0.1
2015-May-20 09:26N 31°07' E 122°49'0 0.1
2015-May-20 08:32N 31°07' E 122°49'0 0.1
2015-May-20 07:32N 31°07' E 122°50'0 0.1
2015-May-20 06:32N 31°07' E 122°50'0 0.2
2015-May-20 05:32N 31°07' E 122°49'0 0.1
2015-May-20 04:32N 31°08' E 122°49'0 0.0
2015-May-20 03:23N 31°08' E 122°49'0 0.1
2015-May-20 02:26N 31°07' E 122°49'0 0.1
2015-May-19 20:26N 31°07' E 122°50'0 0.0
2015-May-19 19:23N 31°07' E 122°50'0 0.1
2015-May-19 18:17N 31°07' E 122°50'1 0.8
2015-May-19 17:33N 31°08' E 122°49'1510.8
2015-May-19 16:10N 30°58' E 122°35'812.1
2015-May-19 15:31N 31°00' E 122°26'1212.9
2015-May-19 14:33N 31°03' E 122°12'7 6.9
2015-May-19 13:31N 31°04' E 122°04'9 9.2
2015-May-19 12:33N 31°08' E 121°55'7 7.5
2015-May-19 11:33N 31°13' E 121°48'10 9.6
2015-May-19 10:33N 31°20' E 121°41'10 9.5
2015-May-19 09:33N 31°25' E 121°31'6 5.6
2015-May-19 08:33N 31°30' E 121°29'5 5.2
2015-May-19 07:33N 31°31' E 121°35'6 6.3
2015-May-19 06:32N 31°35' E 121°28'0 0.0
2015-May-19 05:32N 31°35' E 121°28'4 3.9
2015-May-19 04:33N 31°33' E 121°32'5 5.2
2015-May-19 03:33N 31°36' E 121°27'0 0.0
2015-May-19 02:31N 31°36' E 121°27'0 0.0
2015-May-19 01:31N 31°36' E 121°27'0 0.0
2015-May-19 00:31N 31°36' E 121°27'0 0.0
2015-May-18 23:31N 31°36' E 121°27'0 0.0
2015-May-18 22:31N 31°36' E 121°27'0 0.0
2015-May-18 21:31N 31°36' E 121°27'0 0.0
2015-May-18 20:31N 31°36' E 121°27'0 0.0
2015-May-18 19:31N 31°36' E 121°27'0 0.0
2015-May-18 18:28N 31°36' E 121°27'0 0.0
2015-May-18 17:31N 31°36' E 121°27'0 0.0
2015-May-18 16:31N 31°36' E 121°27'0 0.0
2015-May-18 15:31N 31°36' E 121°27'0 0.0
2015-May-18 14:31N 31°36' E 121°27'0 0.0
2015-May-18 13:22N 31°36' E 121°27'0 0.0
2015-May-18 12:31N 31°36' E 121°27'0 0.0
2015-May-18 11:31N 31°36' E 121°27'0 0.0
2015-May-18 10:31N 31°36' E 121°27'0 0.0
2015-May-18 09:31N 31°36' E 121°27'0 0.0
2015-May-18 08:31N 31°36' E 121°27'0 0.0
2015-May-18 07:31N 31°36' E 121°27'0 0.0
2015-May-18 06:31N 31°36' E 121°27'0 0.0
2015-May-18 05:31N 31°36' E 121°27'0 0.0
2015-May-18 04:31N 31°36' E 121°27'0 0.0
2015-May-18 03:31N 31°36' E 121°27'0 0.0
2015-May-18 02:31N 31°36' E 121°27'0 0.0
2015-May-18 01:31N 31°36' E 121°27'0 0.0
2015-May-18 00:31N 31°36' E 121°27'0 0.0
2015-May-17 23:31N 31°36' E 121°27'0 0.0
2015-May-17 22:31N 31°36' E 121°27'0 0.0
2015-May-17 21:31N 31°36' E 121°27'0 0.0
2015-May-17 20:31N 31°36' E 121°27'0 0.0
2015-May-17 19:31N 31°36' E 121°27'0 0.0
2015-May-17 18:31N 31°36' E 121°27'0 0.0
2015-May-17 17:31N 31°36' E 121°27'0 0.1
2015-May-17 16:33N 31°36' E 121°27'1 0.8
2015-May-17 15:32N 31°35' E 121°27'0 0.0
2015-May-17 14:32N 31°35' E 121°27'0 0.0
2015-May-17 13:32N 31°35' E 121°27'0 0.3
2015-May-17 12:29N 31°35' E 121°28'0 0.0
2015-May-17 11:31N 31°35' E 121°28'1 0.8
2015-May-17 10:32N 31°35' E 121°27'0 0.0
2015-May-17 09:32N 31°35' E 121°27'0 0.0
2015-May-17 08:29N 31°35' E 121°27'0 0.0
2015-May-17 07:32N 31°35' E 121°27'0 0.0
2015-May-17 06:29N 31°35' E 121°27'0 0.0
2015-May-17 05:32N 31°35' E 121°27'0 0.0
2015-May-17 04:32N 31°35' E 121°27'0 0.0
2015-May-17 03:32N 31°35' E 121°27'0 0.0
2015-May-17 02:32N 31°35' E 121°27'0 0.0
2015-May-17 01:32N 31°35' E 121°27'0 0.0
2015-May-17 00:32N 31°35' E 121°27'0 0.0
2015-May-16 23:32N 31°35' E 121°27'0 0.0
2015-May-16 22:32N 31°35' E 121°27'0 0.0
2015-May-16 21:32N 31°35' E 121°27'0 0.0
2015-May-16 20:32N 31°35' E 121°27'0 0.0
2015-May-16 19:32N 31°35' E 121°27'0 0.0
2015-May-16 18:32N 31°35' E 121°27'0 0.0
2015-May-16 17:32N 31°35' E 121°27'0 0.0
2015-May-16 16:32N 31°35' E 121°27'0 0.0
2015-May-16 15:32N 31°35' E 121°27'0 0.0
2015-May-16 14:32N 31°35' E 121°27'0 0.0
2015-May-16 13:32N 31°35' E 121°27'0 0.0
2015-May-16 12:32N 31°35' E 121°27'0 0.0
2015-May-16 11:32N 31°35' E 121°27'0 0.0
2015-May-16 10:29N 31°35' E 121°27'0 0.0
2015-May-16 09:32N 31°35' E 121°27'0 0.0
2015-May-16 08:32N 31°35' E 121°27'0 0.0
2015-May-16 07:32N 31°35' E 121°27'0 0.0
2015-May-16 06:32N 31°35' E 121°27'0 0.0
2015-May-16 05:32N 31°35' E 121°27'0 0.0
2015-May-16 04:29N 31°35' E 121°27'0 0.0
2015-May-16 03:32N 31°35' E 121°27'0 0.0
2015-May-16 02:32N 31°35' E 121°27'0 0.0
2015-May-16 01:32N 31°35' E 121°27'0 0.0
2015-May-16 00:32N 31°35' E 121°27'0 0.0
2015-May-15 23:32N 31°35' E 121°27'0 0.0
2015-May-15 22:32N 31°35' E 121°27'0 0.0
2015-May-15 21:32N 31°35' E 121°27'0 0.0
2015-May-15 20:29N 31°35' E 121°27'0 0.0
2015-May-15 19:32N 31°35' E 121°27'0 0.0
2015-May-15 18:32N 31°35' E 121°27'0 0.0
2015-May-15 17:32N 31°35' E 121°27'0 0.0
2015-May-15 16:32N 31°35' E 121°27'0 0.0
2015-May-15 15:32N 31°35' E 121°27'0 0.0
2015-May-15 14:32N 31°35' E 121°27'0 0.0
2015-May-15 13:32N 31°35' E 121°27'0 0.0
2015-May-15 12:32N 31°35' E 121°27'0 0.0
2015-May-15 11:32N 31°35' E 121°27'0 0.0
2015-May-15 10:32N 31°35' E 121°27'0 0.0
2015-May-15 09:32N 31°35' E 121°27'0 0.0
2015-May-15 08:32N 31°35' E 121°27'0 0.0
2015-May-15 07:32N 31°35' E 121°27'0 0.0
2015-May-15 06:32N 31°35' E 121°27'0 0.0
2015-May-15 05:32N 31°35' E 121°27'0 0.0
2015-May-15 04:32N 31°35' E 121°27'0 0.0
2015-May-15 03:32N 31°35' E 121°27'0 0.0
2015-May-15 02:32N 31°35' E 121°27'0 0.0
2015-May-15 01:32N 31°35' E 121°27'0 0.0
2015-May-15 00:32N 31°35' E 121°27'0 0.0
2015-May-14 23:32N 31°35' E 121°27'0 0.0
2015-May-14 22:32N 31°35' E 121°27'0 0.0
2015-May-14 21:32N 31°35' E 121°27'0 0.0
2015-May-14 20:32N 31°35' E 121°27'0 0.0
2015-May-14 19:32N 31°35' E 121°27'0 0.0
2015-May-14 18:32N 31°35' E 121°27'0 0.0
2015-May-14 17:32N 31°35' E 121°27'0 0.0
2015-May-14 16:32N 31°35' E 121°27'0 0.0
2015-May-14 15:32N 31°35' E 121°27'0 0.0
2015-May-14 14:32N 31°35' E 121°27'0 0.0
2015-May-14 13:32N 31°35' E 121°27'0 0.0
2015-May-14 12:32N 31°35' E 121°27'0 0.0
2015-May-14 11:32N 31°35' E 121°27'0 0.0
2015-May-14 10:32N 31°35' E 121°27'  

Dump ship's entire track history